Time;durP1;ratioP1;P1;durP2;ratioP2;P2;SDS_P1;SDS_P2;PMS_P1;PMS_P2;Temp;Humidity;BMP_temperature;BMP_pressure;BME280_temperature;BME280_humidity;BME280_pressure;Samples;Min_cycle;Max_cycle;Signal;HPM_P1;HPM_P2
2023/09/08 00:02:27;;;;;;;10.50;7.47;;;18.80;1.00;;;;;;5034049;28;20436;-50
2023/09/08 00:04:53;;;;;;;11.20;8.10;;;18.80;1.00;;;;;;5036035;28;20190;-51
2023/09/08 00:07:19;;;;;;;9.13;7.60;;;18.80;1.00;;;;;;5034101;28;20513;-51
2023/09/08 00:09:44;;;;;;;8.23;7.40;;;18.80;1.00;;;;;;5033975;28;20473;-50
2023/09/08 00:12:10;;;;;;;9.67;7.37;;;18.80;1.00;;;;;;5034293;28;20201;-51
2023/09/08 00:14:35;;;;;;;8.67;7.50;;;18.70;1.00;;;;;;5032991;28;20198;-51
2023/09/08 00:17:01;;;;;;;8.90;8.00;;;18.70;1.00;;;;;;5033454;28;20180;-50
2023/09/08 00:19:26;;;;;;;10.47;7.90;;;18.70;1.00;;;;;;5034115;28;20261;-50
2023/09/08 00:21:52;;;;;;;11.47;7.10;;;18.70;1.00;;;;;;5034130;28;20223;-50
2023/09/08 00:24:18;;;;;;;8.17;7.30;;;18.80;1.00;;;;;;5033732;28;20196;-51
2023/09/08 00:26:44;;;;;;;9.33;7.93;;;18.90;1.00;;;;;;5032932;28;20215;-51
2023/09/08 00:29:09;;;;;;;8.77;7.10;;;18.90;1.00;;;;;;5034722;28;20188;-51
2023/09/08 00:31:35;;;;;;;8.60;7.73;;;18.80;1.00;;;;;;5033105;28;20198;-51
2023/09/08 00:34:00;;;;;;;8.40;7.60;;;18.70;1.00;;;;;;5032927;28;20603;-50
2023/09/08 00:36:26;;;;;;;9.00;7.90;;;18.70;1.00;;;;;;5034213;28;20192;-51
2023/09/08 00:38:51;;;;;;;8.20;7.40;;;18.60;1.00;;;;;;5035566;28;20626;-50
2023/09/08 00:41:17;;;;;;;9.43;7.93;;;18.60;1.00;;;;;;5033603;28;20521;-50
2023/09/08 00:43:42;;;;;;;7.53;6.83;;;18.60;1.00;;;;;;5033418;28;20190;-50
2023/09/08 00:46:09;;;;;;;10.70;8.10;;;18.50;1.00;;;;;;5033885;28;20268;-50
2023/09/08 00:48:34;;;;;;;9.43;7.70;;;18.40;1.00;;;;;;5033599;28;20210;-50
2023/09/08 00:51:01;;;;;;;8.03;7.23;;;18.40;1.00;;;;;;5033970;28;20450;-51
2023/09/08 00:53:27;;;;;;;9.50;7.87;;;18.40;1.00;;;;;;5033635;28;20201;-51
2023/09/08 00:55:53;;;;;;;8.47;7.57;;;18.40;1.00;;;;;;5033176;28;20472;-51
2023/09/08 00:58:19;;;;;;;10.43;8.13;;;18.50;1.00;;;;;;5034003;28;20489;-51
2023/09/08 01:00:45;;;;;;;8.43;7.60;;;18.60;1.00;;;;;;5033253;28;21023;-51
2023/09/08 01:03:13;;;;;;;9.53;8.53;;;18.50;1.00;;;;;;5034409;28;20191;-49
2023/09/08 01:05:39;;;;;;;12.77;8.20;;;18.50;1.00;;;;;;5032245;28;20186;-51
2023/09/08 01:08:06;;;;;;;8.70;7.63;;;18.40;1.00;;;;;;5031769;28;20499;-51
2023/09/08 01:10:32;;;;;;;7.93;7.13;;;18.30;1.00;;;;;;5030760;28;20800;-51
2023/09/08 01:12:57;;;;;;;8.20;7.40;;;18.30;1.00;;;;;;5030719;28;20456;-51
2023/09/08 01:15:23;;;;;;;8.60;7.57;;;18.40;1.00;;;;;;5033102;28;20194;-51
2023/09/08 01:17:49;;;;;;;8.23;7.20;;;18.50;1.00;;;;;;5031284;28;20201;-51
2023/09/08 01:20:30;;;;;;;8.90;8.00;;;18.40;1.00;;;;;;5023767;28;20198;-51
2023/09/08 01:23:14;;;;;;;11.03;8.20;;;18.40;1.00;;;;;;5012150;28;20484;-50
2023/09/08 01:26:01;;;;;;;11.43;7.67;;;18.40;1.00;;;;;;5011232;28;20449;-51
2023/09/08 01:28:27;;;;;;;8.50;7.70;;;18.50;1.00;;;;;;5011231;28;20887;-51
2023/09/08 01:30:55;;;;;;;9.70;7.83;;;18.50;1.00;;;;;;5011155;28;20441;-51
2023/09/08 01:33:22;;;;;;;8.47;7.40;;;18.50;1.00;;;;;;5020427;28;20445;-50
2023/09/08 01:35:48;;;;;;;8.93;7.43;;;18.50;1.00;;;;;;5013664;28;20540;-51
2023/09/08 01:38:14;;;;;;;8.50;7.60;;;18.50;1.00;;;;;;5026233;28;20454;-52
2023/09/08 01:40:40;;;;;;;13.07;9.10;;;18.40;1.00;;;;;;5017473;28;20445;-51
2023/09/08 01:43:05;;;;;;;8.80;7.43;;;18.20;1.00;;;;;;5011230;28;21289;-51
2023/09/08 01:45:31;;;;;;;9.93;7.87;;;18.10;1.00;;;;;;5026128;28;20284;-51
2023/09/08 01:47:56;;;;;;;10.37;8.23;;;18.00;1.00;;;;;;5031205;28;20224;-51
2023/09/08 01:50:24;;;;;;;9.93;8.40;;;17.90;1.00;;;;;;5032427;28;20197;-51
2023/09/08 01:52:50;;;;;;;9.40;8.50;;;17.90;54.70;;;;;;5030979;28;20199;-51
2023/09/08 01:55:19;;;;;;;9.47;8.57;;;18.00;1.00;;;;;;5029379;28;20504;-50
2023/09/08 01:57:44;;;;;;;9.67;8.67;;;17.90;1.00;;;;;;5031120;28;20464;-51
2023/09/08 02:00:11;;;;;;;9.40;8.40;;;17.80;1.00;;;;;;5032110;28;21016;-51
2023/09/08 02:02:36;;;;;;;11.30;8.90;;;17.80;1.00;;;;;;5031402;28;20190;-51
2023/09/08 02:05:02;;;;;;;8.93;8.03;;;17.80;5.30;;;;;;5031029;28;20447;-51
2023/09/08 02:07:28;;;;;;;9.50;8.50;;;17.80;72.30;;;;;;5031291;28;20728;-51
2023/09/08 02:09:53;;;;;;;11.60;8.93;;;17.90;35.10;;;;;;5031351;28;20190;-51
2023/09/08 02:12:19;;;;;;;9.57;8.57;;;17.80;48.20;;;;;;5028268;28;20672;-52
2023/09/08 02:14:44;;;;;;;9.20;8.30;;;18.00;66.50;;;;;;5027514;28;20648;-51
2023/09/08 02:17:10;;;;;;;8.63;7.73;;;17.90;18.40;;;;;;5032353;28;20198;-51
2023/09/08 02:19:35;;;;;;;9.57;8.50;;;18.00;40.60;;;;;;5029745;28;20186;-50
2023/09/08 02:22:01;;;;;;;10.90;8.87;;;17.90;28.00;;;;;;5030908;28;20760;-50
2023/09/08 02:24:27;;;;;;;12.60;9.00;;;17.90;10.60;;;;;;5032492;28;20195;-51
2023/09/08 02:26:53;;;;;;;10.33;9.23;;;17.80;29.10;;;;;;5032308;28;20210;-52
2023/09/08 02:29:18;;;;;;;9.67;8.70;;;17.80;1.00;;;;;;5031269;28;20586;-51
2023/09/08 02:31:44;;;;;;;10.13;8.57;;;17.80;82.70;;;;;;5031148;28;20453;-51
2023/09/08 02:34:12;;;;;;;10.53;9.13;;;17.80;74.40;;;;;;5032807;28;20193;-51
2023/09/08 02:36:38;;;;;;;13.97;8.60;;;17.80;87.30;;;;;;5032860;28;20186;-51
2023/09/08 02:39:04;;;;;;;10.33;9.30;;;17.70;8.70;;;;;;5038768;28;20548;-51
2023/09/08 02:41:29;;;;;;;9.50;8.50;;;17.70;87.80;;;;;;5035367;28;20205;-51
2023/09/08 02:43:55;;;;;;;9.17;8.23;;;17.70;99.10;;;;;;5035877;28;20442;-51
2023/09/08 02:46:20;;;;;;;12.07;9.40;;;17.80;99.90;;;;;;5034389;28;20309;-51
2023/09/08 02:48:46;;;;;;;9.00;8.20;;;17.80;48.10;;;;;;5036195;28;20178;-53
2023/09/08 02:51:12;;;;;;;11.43;8.60;;;17.70;44.90;;;;;;5031507;28;20181;-51
2023/09/08 02:53:37;;;;;;;10.63;7.83;;;17.70;29.60;;;;;;5036493;28;20217;-51
2023/09/08 02:56:05;;;;;;;9.40;8.50;;;17.70;68.80;;;;;;5037405;28;20252;-51
2023/09/08 02:58:34;;;;;;;9.47;8.50;;;17.70;79.70;;;;;;5035174;28;20570;-51
2023/09/08 03:01:19;;;;;;;10.03;8.70;;;17.60;89.10;;;;;;5035538;28;20448;-52
2023/09/08 03:03:44;;;;;;;9.73;8.73;;;17.60;99.90;;;;;;5035850;28;20523;-51
2023/09/08 03:06:11;;;;;;;9.57;8.57;;;17.50;99.90;;;;;;5035633;28;20906;-50
2023/09/08 03:08:36;;;;;;;9.77;8.77;;;17.60;99.90;;;;;;5034831;28;20275;-51
2023/09/08 03:11:04;;;;;;;12.50;9.00;;;17.60;99.90;;;;;;5034752;28;20579;-53
2023/09/08 03:13:30;;;;;;;10.30;9.17;;;17.60;99.90;;;;;;5035293;28;20651;-51
2023/09/08 03:15:56;;;;;;;12.53;9.30;;;17.60;99.40;;;;;;5034318;28;20527;-51
2023/09/08 03:18:22;;;;;;;11.03;9.53;;;17.50;66.90;;;;;;5035254;28;20536;-52
2023/09/08 03:20:49;;;;;;;10.20;9.20;;;17.40;51.10;;;;;;5034641;28;20548;-50
2023/09/08 03:23:15;;;;;;;11.17;10.07;;;17.30;89.50;;;;;;5027458;28;20541;-51
2023/09/08 03:25:41;;;;;;;11.27;9.73;;;17.30;99.90;;;;;;5035155;28;20453;-51
2023/09/08 03:28:06;;;;;;;11.70;9.17;;;17.10;99.90;;;;;;5035292;28;20231;-51
2023/09/08 03:30:32;;;;;;;11.63;8.90;;;17.10;99.90;;;;;;5038346;28;20187;-51
2023/09/08 03:32:57;;;;;;;11.97;9.43;;;17.10;99.90;;;;;;5033754;28;20184;-50
2023/09/08 03:35:23;;;;;;;12.40;9.97;;;17.10;99.90;;;;;;5036074;28;20269;-52
2023/09/08 03:37:49;;;;;;;13.10;9.00;;;16.90;99.90;;;;;;5035119;28;20191;-52
2023/09/08 03:40:14;;;;;;;11.93;10.43;;;16.90;99.90;;;;;;5034991;28;20280;-51
2023/09/08 03:42:42;;;;;;;12.40;10.13;;;16.90;99.90;;;;;;5034988;28;20193;-51
2023/09/08 03:45:08;;;;;;;11.17;9.40;;;16.80;99.90;;;;;;5035590;28;20704;-52
2023/09/08 03:47:33;;;;;;;13.47;11.60;;;16.70;99.90;;;;;;5034621;28;20832;-52
2023/09/08 03:49:59;;;;;;;11.90;10.70;;;16.60;99.90;;;;;;5035761;28;20434;-51
2023/09/08 03:52:25;;;;;;;11.13;9.87;;;16.60;99.90;;;;;;5034142;28;20196;-51
2023/09/08 03:54:50;;;;;;;14.10;10.50;;;16.50;1.00;;;;;;5034851;28;20192;-51
2023/09/08 03:57:16;;;;;;;13.80;9.60;;;16.60;1.00;;;;;;5034113;28;20467;-52
2023/09/08 03:59:42;;;;;;;13.57;11.33;;;16.60;1.00;;;;;;5034465;28;20509;-53
2023/09/08 04:02:07;;;;;;;12.80;11.00;;;16.60;99.90;;;;;;5035542;28;20274;-51
2023/09/08 04:04:33;;;;;;;12.07;10.70;;;16.60;1.00;;;;;;5034069;28;20214;-52
2023/09/08 04:06:58;;;;;;;13.43;10.67;;;16.60;1.00;;;;;;5034524;28;20614;-51
2023/09/08 04:09:24;;;;;;;13.67;11.60;;;16.60;1.00;;;;;;5033333;28;20208;-51
2023/09/08 04:11:49;;;;;;;11.03;9.97;;;16.50;1.00;;;;;;5035190;28;20242;-51
2023/09/08 04:14:15;;;;;;;12.80;11.23;;;16.60;1.00;;;;;;5033715;28;20188;-50
2023/09/08 04:16:40;;;;;;;12.57;10.47;;;16.60;1.00;;;;;;5032129;28;20182;-50
2023/09/08 04:19:06;;;;;;;11.97;10.70;;;16.70;1.00;;;;;;5034277;28;20192;-50
2023/09/08 04:21:32;;;;;;;12.17;10.40;;;16.70;99.90;;;;;;5032719;28;20331;-51
2023/09/08 04:23:57;;;;;;;13.97;12.10;;;16.70;99.90;;;;;;5034945;28;20730;-51
2023/09/08 04:26:23;;;;;;;16.40;11.37;;;16.70;99.90;;;;;;5033197;28;20208;-50
2023/09/08 04:28:48;;;;;;;21.10;11.03;;;16.60;99.90;;;;;;5028385;28;20638;-52
2023/09/08 04:31:14;;;;;;;12.40;11.10;;;16.70;1.00;;;;;;5032695;28;20193;-51
2023/09/08 04:33:40;;;;;;;12.30;11.00;;;16.70;99.90;;;;;;5030651;28;20212;-51
2023/09/08 04:36:05;;;;;;;18.33;11.93;;;16.70;1.00;;;;;;5033532;28;20204;-50
2023/09/08 04:38:31;;;;;;;17.43;10.50;;;16.70;1.00;;;;;;5032706;28;20237;-51
2023/09/08 04:40:56;;;;;;;15.03;11.70;;;16.70;99.90;;;;;;5033067;28;20188;-51
2023/09/08 04:43:22;;;;;;;16.17;12.17;;;16.70;99.90;;;;;;5032781;28;20194;-51
2023/09/08 04:45:48;;;;;;;16.00;11.30;;;16.70;99.90;;;;;;5033780;28;20190;-51
2023/09/08 04:48:13;;;;;;;16.13;11.50;;;16.70;99.90;;;;;;5033186;28;20544;-51
2023/09/08 04:50:39;;;;;;;15.30;11.10;;;16.70;99.90;;;;;;5033021;28;20183;-52
2023/09/08 04:53:04;;;;;;;12.13;10.70;;;16.70;99.90;;;;;;5035212;28;20196;-53
2023/09/08 04:55:30;;;;;;;15.33;10.73;;;16.70;1.00;;;;;;5036724;28;20214;-51
2023/09/08 04:57:56;;;;;;;16.03;11.03;;;16.70;99.90;;;;;;5032674;28;20190;-51
2023/09/08 05:00:21;;;;;;;14.43;11.90;;;16.70;99.90;;;;;;5033213;28;20184;-53
2023/09/08 05:02:47;;;;;;;13.33;11.73;;;16.70;99.90;;;;;;5031859;28;20211;-51
2023/09/08 05:05:13;;;;;;;15.47;12.17;;;16.70;99.90;;;;;;5033177;28;20617;-51
2023/09/08 05:07:38;;;;;;;13.20;11.27;;;16.70;99.90;;;;;;5033781;28;20212;-51
2023/09/08 05:10:04;;;;;;;13.60;11.70;;;16.80;1.00;;;;;;5033479;28;20667;-51
2023/09/08 05:12:30;;;;;;;16.90;11.00;;;16.80;99.90;;;;;;5033387;28;20534;-51
2023/09/08 05:14:59;;;;;;;14.93;11.10;;;16.90;1.00;;;;;;5032843;28;20498;-51
2023/09/08 05:17:25;;;;;;;12.40;10.67;;;16.90;1.00;;;;;;5032391;28;20267;-51
2023/09/08 05:19:51;;;;;;;12.37;10.63;;;17.00;1.00;;;;;;5033010;28;20851;-52
2023/09/08 05:22:17;;;;;;;13.17;11.77;;;17.00;99.90;;;;;;5032313;28;20608;-51
2023/09/08 05:24:42;;;;;;;14.10;10.87;;;17.00;99.90;;;;;;5033312;28;20258;-51
2023/09/08 05:27:08;;;;;;;15.10;12.00;;;17.00;99.90;;;;;;5032799;28;20481;-52
2023/09/08 05:29:33;;;;;;;13.83;11.37;;;17.00;99.90;;;;;;5032879;28;20188;-52
2023/09/08 05:31:59;;;;;;;15.03;11.90;;;17.00;1.00;;;;;;5031147;28;20195;-52
2023/09/08 05:34:25;;;;;;;17.57;11.77;;;17.00;99.90;;;;;;5031570;28;20189;-51
2023/09/08 05:36:50;;;;;;;15.27;11.87;;;16.90;99.90;;;;;;5036693;28;20291;-52
2023/09/08 05:39:18;;;;;;;20.10;11.33;;;16.90;99.90;;;;;;5034465;28;20275;-52
2023/09/08 05:41:44;;;;;;;13.43;11.50;;;17.00;99.90;;;;;;5034787;28;20189;-51
2023/09/08 05:44:09;;;;;;;21.67;11.37;;;17.00;99.90;;;;;;5033556;28;20431;-52
2023/09/08 05:46:35;;;;;;;13.10;11.70;;;17.20;99.90;;;;;;5030599;28;20214;-51
2023/09/08 05:49:01;;;;;;;15.30;13.00;;;17.40;99.90;;;;;;5033060;28;20193;-49
2023/09/08 05:51:26;;;;;;;15.93;12.13;;;17.40;99.90;;;;;;5030978;28;20190;-51
2023/09/08 05:53:52;;;;;;;21.87;13.37;;;17.40;99.90;;;;;;5029805;28;20296;-51
2023/09/08 05:56:19;;;;;;;13.70;11.67;;;17.30;99.90;;;;;;5028994;28;20202;-51
2023/09/08 05:58:45;;;;;;;14.63;11.67;;;17.40;99.90;;;;;;5032634;28;20277;-51
2023/09/08 06:01:11;;;;;;;14.87;12.07;;;17.40;99.90;;;;;;5032748;28;20543;-51
2023/09/08 06:03:36;;;;;;;17.60;11.83;;;17.50;99.90;;;;;;5032389;28;20186;-49
2023/09/08 06:06:02;;;;;;;16.03;13.00;;;17.50;99.90;;;;;;5024452;28;20197;-50
2023/09/08 06:08:27;;;;;;;17.77;13.20;;;17.50;99.90;;;;;;5033001;28;21574;-49
2023/09/08 06:10:53;;;;;;;16.93;12.40;;;17.50;94.30;;;;;;5028656;28;20598;-50
2023/09/08 06:13:19;;;;;;;21.83;14.47;;;17.60;60.20;;;;;;5030814;28;20227;-50
2023/09/08 06:15:44;;;;;;;25.13;12.43;;;17.80;29.40;;;;;;5032851;28;20546;-49
2023/09/08 06:18:11;;;;;;;14.20;12.30;;;18.00;10.50;;;;;;5030993;28;20552;-49
2023/09/08 06:20:37;;;;;;;16.00;12.40;;;18.10;1.00;;;;;;5032540;28;20211;-49
2023/09/08 06:23:02;;;;;;;21.70;12.80;;;18.40;1.00;;;;;;5032327;28;21015;-49
2023/09/08 06:25:28;;;;;;;17.40;12.23;;;18.60;1.00;;;;;;5032961;28;20193;-49
2023/09/08 06:27:54;;;;;;;17.77;11.97;;;18.70;1.00;;;;;;5032795;28;20675;-49
2023/09/08 06:30:19;;;;;;;13.40;11.00;;;18.90;1.00;;;;;;5031898;28;20550;-48
2023/09/08 06:32:45;;;;;;;15.97;12.00;;;19.20;1.00;;;;;;5032643;28;20274;-49
2023/09/08 06:35:10;;;;;;;12.80;11.00;;;19.30;1.00;;;;;;5029822;28;20202;-48
2023/09/08 06:37:37;;;;;;;21.73;12.53;;;19.60;1.00;;;;;;5033055;28;20733;-48
2023/09/08 06:40:04;;;;;;;17.13;10.97;;;19.80;1.00;;;;;;5032391;28;20278;-49
2023/09/08 06:42:29;;;;;;;18.40;11.97;;;20.00;1.00;;;;;;5032046;28;20441;-49
2023/09/08 06:44:55;;;;;;;17.17;11.13;;;20.20;1.00;;;;;;5032591;28;20438;-48
2023/09/08 06:47:21;;;;;;;16.37;11.50;;;20.40;1.00;;;;;;5032758;28;20257;-48
2023/09/08 06:49:47;;;;;;;16.60;11.07;;;20.50;1.00;;;;;;5032610;28;20180;-47
2023/09/08 06:52:12;;;;;;;15.50;11.47;;;20.80;1.00;;;;;;5033376;28;20197;-48
2023/09/08 06:54:38;;;;;;;12.83;10.20;;;21.10;1.00;;;;;;5032303;28;20922;-48
2023/09/08 06:57:03;;;;;;;17.63;11.57;;;21.30;1.00;;;;;;5032591;28;20179;-49
2023/09/08 06:59:29;;;;;;;16.03;10.87;;;21.50;1.00;;;;;;5032403;28;20190;-50
2023/09/08 07:01:55;;;;;;;14.57;10.73;;;21.70;1.00;;;;;;5033106;28;20184;-49
2023/09/08 07:04:20;;;;;;;13.00;10.30;;;21.90;1.00;;;;;;5031443;28;20241;-48
2023/09/08 07:06:46;;;;;;;16.47;11.10;;;22.10;1.00;;;;;;5031302;28;20199;-47
2023/09/08 07:09:12;;;;;;;14.90;10.77;;;22.40;1.00;;;;;;5031516;28;20187;-48
2023/09/08 07:11:38;;;;;;;14.90;10.30;;;22.80;1.00;;;;;;5031348;28;20187;-49
2023/09/08 07:14:03;;;;;;;19.87;10.73;;;23.10;1.00;;;;;;5031153;28;20422;-48
2023/09/08 07:16:29;;;;;;;19.53;11.17;;;23.30;1.00;;;;;;5031184;28;20702;-48
2023/09/08 07:18:55;;;;;;;16.67;11.53;;;23.60;1.00;;;;;;5031082;28;20191;-48
2023/09/08 07:21:20;;;;;;;16.93;10.57;;;23.90;1.00;;;;;;5032776;28;20238;-48
2023/09/08 07:23:46;;;;;;;18.70;10.90;;;24.30;1.00;;;;;;5032449;28;20183;-48
2023/09/08 07:26:12;;;;;;;13.30;10.10;;;24.50;1.00;;;;;;5036108;28;20189;-48
2023/09/08 07:28:37;;;;;;;15.90;10.63;;;24.90;1.00;;;;;;5036477;28;20215;-47
2023/09/08 07:31:04;;;;;;;14.13;10.63;;;25.10;1.00;;;;;;5035850;28;20228;-46
2023/09/08 07:33:29;;;;;;;14.97;10.70;;;25.40;1.00;;;;;;5036166;28;20211;-48
2023/09/08 07:35:55;;;;;;;13.13;10.00;;;25.60;1.00;;;;;;5036172;28;20735;-48
2023/09/08 07:38:21;;;;;;;14.07;10.20;;;25.80;1.00;;;;;;5035991;28;20202;-47
2023/09/08 07:40:46;;;;;;;18.97;10.53;;;26.10;1.00;;;;;;5035910;28;20257;-48
2023/09/08 07:43:12;;;;;;;16.00;10.67;;;26.30;1.00;;;;;;5035617;28;20187;-48
2023/09/08 07:45:40;;;;;;;20.03;10.70;;;26.50;1.00;;;;;;5035922;28;20176;-47
2023/09/08 07:48:06;;;;;;;14.60;10.20;;;26.70;1.00;;;;;;5027875;28;20208;-47
2023/09/08 07:50:31;;;;;;;15.40;9.47;;;26.90;1.00;;;;;;5035776;28;20425;-47
2023/09/08 07:52:57;;;;;;;21.60;10.67;;;27.00;1.00;;;;;;5035814;28;20884;-48
2023/09/08 07:55:26;;;;;;;16.67;10.67;;;27.20;1.00;;;;;;5035751;28;20186;-48
2023/09/08 07:57:53;;;;;;;18.07;10.17;;;27.40;1.00;;;;;;5035482;28;20676;-47
2023/09/08 08:00:19;;;;;;;11.73;9.50;;;27.70;1.00;;;;;;5035793;28;20422;-47
2023/09/08 08:02:49;;;;;;;14.63;9.83;;;28.10;1.00;;;;;;5035561;28;20430;-46
2023/09/08 08:05:15;;;;;;;15.43;9.53;;;28.30;1.00;;;;;;5027989;28;20472;-45
2023/09/08 08:07:42;;;;;;;17.83;9.17;;;28.40;1.00;;;;;;5035127;28;20512;-46
2023/09/08 08:10:10;;;;;;;16.83;8.93;;;28.30;99.90;;;;;;5035005;28;20517;-45
2023/09/08 08:12:36;;;;;;;12.10;9.67;;;28.40;99.90;;;;;;5033765;28;20466;-46
2023/09/08 08:15:02;;;;;;;18.20;9.33;;;28.40;99.90;;;;;;5034565;28;20427;-46
2023/09/08 08:17:29;;;;;;;17.57;10.53;;;28.70;99.90;;;;;;5035213;28;20940;-46
2023/09/08 08:19:55;;;;;;;12.00;8.90;;;28.90;99.90;;;;;;5034403;28;20240;-47
2023/09/08 08:22:21;;;;;;;14.97;8.97;;;29.20;99.90;;;;;;5035453;28;20565;-47
2023/09/08 08:24:47;;;;;;;14.50;8.60;;;29.60;99.90;;;;;;5035143;28;21032;-47
2023/09/08 08:27:12;;;;;;;13.87;8.40;;;29.80;99.90;;;;;;5034629;28;20207;-47
2023/09/08 08:29:39;;;;;;;8.60;7.73;;;30.00;99.90;;;;;;5035128;28;20263;-47
2023/09/08 08:32:05;;;;;;;15.33;9.40;;;30.20;99.90;;;;;;5034788;28;20195;-46
2023/09/08 08:34:31;;;;;;;12.10;8.50;;;30.30;99.90;;;;;;5034929;28;20437;-47
2023/09/08 08:36:56;;;;;;;11.67;8.50;;;30.60;99.90;;;;;;5033791;28;20274;-48
2023/09/08 08:39:22;;;;;;;10.87;7.73;;;30.30;99.90;;;;;;5026636;28;20269;-46
2023/09/08 08:41:48;;;;;;;14.23;8.73;;;30.40;99.90;;;;;;5034666;28;20191;-48
2023/09/08 08:44:17;;;;;;;16.10;8.10;;;30.30;99.90;;;;;;5034508;28;20191;-48
2023/09/08 08:46:44;;;;;;;13.80;8.57;;;30.50;99.90;;;;;;5034762;28;20218;-48
2023/09/08 08:49:12;;;;;;;12.03;8.70;;;30.70;99.90;;;;;;5034395;28;20492;-49
2023/09/08 08:51:39;;;;;;;10.43;7.90;;;30.80;99.90;;;;;;5034747;28;20431;-48
2023/09/08 08:54:05;;;;;;;17.17;9.20;;;31.00;99.90;;;;;;5034305;28;20906;-48
2023/09/08 08:56:32;;;;;;;16.53;9.00;;;31.20;99.90;;;;;;5034026;28;20832;-48
2023/09/08 08:58:59;;;;;;;9.60;8.70;;;31.30;99.90;;;;;;5034624;28;20436;-47
2023/09/08 09:01:26;;;;;;;14.47;8.40;;;31.30;99.90;;;;;;5034285;28;20437;-48
2023/09/08 09:03:52;;;;;;;12.10;8.37;;;31.20;99.90;;;;;;5034494;28;20517;-49
2023/09/08 09:06:18;;;;;;;13.37;8.23;;;31.10;99.90;;;;;;5033957;28;20911;-48
2023/09/08 09:08:44;;;;;;;15.00;7.80;;;31.00;99.90;;;;;;5034512;28;20496;-48
2023/09/08 09:11:11;;;;;;;11.13;8.20;;;30.90;99.90;;;;;;5034349;28;20774;-48
2023/09/08 09:13:37;;;;;;;14.07;8.73;;;30.80;99.90;;;;;;5034304;28;20461;-47
2023/09/08 09:16:04;;;;;;;11.00;8.43;;;30.60;99.90;;;;;;5034064;28;20492;-48
2023/09/08 09:18:30;;;;;;;16.13;7.97;;;30.40;99.90;;;;;;5033814;28;20661;-48
2023/09/08 09:21:00;;;;;;;10.93;8.17;;;30.30;99.90;;;;;;5033452;28;20422;-48
2023/09/08 09:23:34;;;;;;;11.93;8.90;;;30.10;99.90;;;;;;5034193;28;20514;-48
2023/09/08 09:26:03;;;;;;;13.50;8.30;;;29.50;99.90;;;;;;5034057;28;20893;-48
2023/09/08 09:28:29;;;;;;;9.43;8.03;;;29.00;99.90;;;;;;5033438;28;21005;-48
2023/09/08 09:30:55;;;;;;;11.13;8.00;;;28.60;99.90;;;;;;5033923;28;20422;-48
2023/09/08 09:33:21;;;;;;;12.40;8.97;;;28.50;99.90;;;;;;5033618;28;21009;-48
2023/09/08 09:35:49;;;;;;;15.67;8.20;;;28.20;99.90;;;;;;5033903;28;20190;-48
2023/09/08 09:38:16;;;;;;;11.53;8.93;;;28.10;99.90;;;;;;5033966;28;20482;-48
2023/09/08 09:40:42;;;;;;;11.80;8.90;;;27.80;99.90;;;;;;5026060;28;20418;-47
2023/09/08 09:43:09;;;;;;;10.97;9.07;;;27.60;99.90;;;;;;5033700;28;20461;-47
2023/09/08 09:45:36;;;;;;;10.87;8.57;;;27.30;99.90;;;;;;5033605;28;20188;-47
2023/09/08 09:48:04;;;;;;;9.60;7.80;;;27.20;99.90;;;;;;5033274;28;20860;-47
2023/09/08 09:50:37;;;;;;;10.43;8.13;;;27.20;99.90;;;;;;5033487;28;20430;-48
2023/09/08 09:53:12;;;;;;;11.90;8.23;;;27.30;99.90;;;;;;5033477;28;20422;-47
2023/09/08 09:55:40;;;;;;;10.20;7.70;;;27.30;99.90;;;;;;5033091;28;20422;-47
2023/09/08 09:58:05;;;;;;;10.80;8.00;;;27.20;99.90;;;;;;5033189;28;20922;-47
2023/09/08 10:00:34;;;;;;;11.70;8.83;;;27.20;99.90;;;;;;5033347;28;20517;-47
2023/09/08 10:03:01;;;;;;;13.80;8.87;;;27.30;99.90;;;;;;5033502;28;20217;-47
2023/09/08 10:05:27;;;;;;;12.33;9.10;;;27.30;99.90;;;;;;5033192;28;20436;-47
2023/09/08 10:07:53;;;;;;;12.23;8.87;;;27.30;99.90;;;;;;5033460;28;20491;-47
2023/09/08 10:10:20;;;;;;;14.40;8.47;;;27.30;99.90;;;;;;5033286;28;20918;-47
2023/09/08 10:12:54;;;;;;;12.93;9.00;;;27.30;99.90;;;;;;5033250;28;20498;-47
2023/09/08 10:15:24;;;;;;;10.80;8.60;;;27.40;99.90;;;;;;5033507;28;20513;-47
2023/09/08 10:17:57;;;;;;;14.93;9.07;;;27.50;99.90;;;;;;5033337;28;20813;-47
2023/09/08 10:20:27;;;;;;;13.10;8.10;;;27.60;99.90;;;;;;5033461;28;20602;-46
2023/09/08 10:22:56;;;;;;;13.93;8.60;;;27.90;99.90;;;;;;5033268;28;21004;-48
2023/09/08 10:25:24;;;;;;;11.10;8.57;;;28.40;99.90;;;;;;5033088;28;20930;-47
2023/09/08 10:27:51;;;;;;;16.93;8.70;;;28.80;99.90;;;;;;5032844;28;20509;-45
2023/09/08 10:30:20;;;;;;;13.70;7.97;;;29.00;99.90;;;;;;5033196;28;20438;-46
2023/09/08 10:32:49;;;;;;;9.67;8.03;;;29.10;99.90;;;;;;5032786;28;21007;-47
2023/09/08 10:35:17;;;;;;;9.40;8.30;;;29.30;99.90;;;;;;5033252;28;20434;-47
2023/09/08 10:37:42;;;;;;;10.13;7.97;;;29.60;99.90;;;;;;5032728;28;20791;-47
2023/09/08 10:40:27;;;;;;;9.30;7.80;;;30.20;99.90;;;;;;5033211;28;20430;-47
2023/09/08 10:43:11;;;;;;;11.00;7.87;;;31.00;99.90;;;;;;5032988;28;20210;-47
2023/09/08 10:45:37;;;;;;;12.03;7.70;;;31.80;99.90;;;;;;5033004;28;20524;-47
2023/09/08 10:48:03;;;;;;;9.63;8.13;;;32.40;99.90;;;;;;5032905;28;20569;-47
2023/09/08 10:50:34;;;;;;;12.40;8.90;;;33.00;99.90;;;;;;5033024;28;20218;-48
2023/09/08 10:53:17;;;;;;;14.80;8.77;;;33.40;99.90;;;;;;5032953;28;20770;-48
2023/09/08 10:55:53;;;;;;;11.00;7.87;;;33.50;99.90;;;;;;5032809;28;20492;-48
2023/09/08 10:58:19;;;;;;;12.10;8.03;;;34.10;99.90;;;;;;5033093;28;20430;-48
2023/09/08 11:00:48;;;;;;;13.70;8.43;;;34.50;99.90;;;;;;5035922;28;20461;-48
2023/09/08 11:03:24;;;;;;;8.33;7.30;;;34.80;99.90;;;;;;5036074;28;20520;-47
2023/09/08 11:05:50;;;;;;;10.23;7.17;;;35.10;99.90;;;;;;5036072;28;20421;-49
2023/09/08 11:08:18;;;;;;;9.47;6.97;;;35.40;99.90;;;;;;5036232;28;20473;-49
2023/09/08 11:10:45;;;;;;;10.23;7.87;;;35.50;99.90;;;;;;5035688;28;20184;-49
2023/09/08 11:13:10;;;;;;;8.53;7.53;;;35.70;99.90;;;;;;5036616;28;20457;-50
2023/09/08 11:15:37;;;;;;;14.43;7.60;;;35.90;99.90;;;;;;5036144;28;20769;-48
2023/09/08 11:18:07;;;;;;;9.73;6.97;;;36.10;99.90;;;;;;5036489;28;20188;-48
2023/09/08 11:20:34;;;;;;;15.90;7.40;;;36.10;99.90;;;;;;5036546;28;20433;-49
2023/09/08 11:22:59;;;;;;;9.83;7.67;;;36.40;99.90;;;;;;5034397;28;20474;-48
2023/09/08 11:25:25;;;;;;;11.07;6.70;;;36.70;99.90;;;;;;5036359;28;20430;-48
2023/09/08 11:27:51;;;;;;;11.53;7.47;;;36.60;99.90;;;;;;5035613;28;20781;-49
2023/09/08 11:30:17;;;;;;;7.67;6.20;;;36.70;99.90;;;;;;5036008;28;20180;-48
2023/09/08 11:32:43;;;;;;;8.03;6.70;;;36.90;99.90;;;;;;5036241;28;20175;-49
2023/09/08 11:35:10;;;;;;;9.70;7.20;;;36.80;99.90;;;;;;5032622;28;20555;-49
2023/09/08 11:37:40;;;;;;;11.63;6.27;;;37.00;99.90;;;;;;5034533;28;20270;-48
2023/09/08 11:40:11;;;;;;;9.90;6.90;;;37.20;99.90;;;;;;5040105;28;20475;-49
2023/09/08 11:42:43;;;;;;;12.67;7.03;;;37.30;99.90;;;;;;5043377;28;20805;-50
2023/09/08 11:45:14;;;;;;;10.90;6.13;;;37.40;99.90;;;;;;5036372;28;20430;-49
2023/09/08 11:47:42;;;;;;;9.17;7.03;;;37.60;99.90;;;;;;5035704;28;20477;-49
2023/09/08 11:50:09;;;;;;;12.40;6.60;;;37.70;99.90;;;;;;5035290;28;20919;-49
2023/09/08 11:52:35;;;;;;;7.83;7.13;;;37.70;99.90;;;;;;5039994;28;20433;-49
2023/09/08 11:55:00;;;;;;;7.00;6.30;;;37.80;99.90;;;;;;5035517;28;20796;-50
2023/09/08 11:57:28;;;;;;;12.10;6.50;;;38.10;99.90;;;;;;5035990;28;20195;-49
2023/09/08 11:59:53;;;;;;;8.17;5.90;;;38.10;99.90;;;;;;5035617;28;20194;-51
2023/09/08 12:02:19;;;;;;;8.23;5.50;;;38.10;99.90;;;;;;5033377;28;20437;-48
2023/09/08 12:04:45;;;;;;;9.33;6.10;;;38.00;99.90;;;;;;5035413;28;20536;-48
2023/09/08 12:07:19;;;;;;;7.83;6.30;;;38.00;99.90;;;;;;5035014;28;20253;-48
2023/09/08 12:09:45;;;;;;;14.13;6.30;;;38.00;99.90;;;;;;5035394;28;20186;-49
2023/09/08 12:12:14;;;;;;;9.53;6.60;;;37.90;99.90;;;;;;5033861;28;20425;-49
2023/09/08 12:14:43;;;;;;;12.70;6.27;;;37.90;99.90;;;;;;5035386;28;20190;-49
2023/09/08 12:17:09;;;;;;;8.03;5.60;;;38.10;99.90;;;;;;5035539;28;20450;-49
2023/09/08 12:19:38;;;;;;;6.53;5.93;;;38.10;99.90;;;;;;5035873;28;20414;-50
2023/09/08 12:22:05;;;;;;;8.67;6.20;;;38.30;99.90;;;;;;5035374;28;20671;-48
2023/09/08 12:24:47;;;;;;;8.97;6.97;;;38.40;99.90;;;;;;5034970;28;20953;-49
2023/09/08 12:27:14;;;;;;;8.40;6.77;;;38.30;99.90;;;;;;5034540;28;20954;-50
2023/09/08 12:29:40;;;;;;;8.20;6.40;;;38.40;99.90;;;;;;5034887;28;20441;-49
2023/09/08 12:32:06;;;;;;;7.40;6.20;;;38.50;99.90;;;;;;5035140;28;20788;-49
2023/09/08 12:34:32;;;;;;;7.53;5.40;;;38.60;99.90;;;;;;5034624;28;20271;-49
2023/09/08 12:36:57;;;;;;;6.10;5.50;;;38.70;99.90;;;;;;5034772;28;20972;-50
2023/09/08 12:39:23;;;;;;;8.73;4.87;;;38.60;99.90;;;;;;5034591;28;20183;-49